Time;durP1;ratioP1;P1;durP2;ratioP2;P2;SDS_P1;SDS_P2;PMS_P1;PMS_P2;Temp;Humidity;BMP_temperature;BMP_pressure;BME280_temperature;BME280_humidity;BME280_pressure;Samples;Min_cycle;Max_cycle;Signal;HPM_P1;HPM_P2
2021/12/02 00:00:58;;;;;;;4.57;1.50;;;;;;;8.75;48.90;100844.22;2097869;28;20190;-66
2021/12/02 00:01:59;;;;;;;3.67;1.30;;;;;;;8.81;48.00;100848.09;2097470;28;20181;-66
2021/12/02 00:03:03;;;;;;;4.37;1.77;;;;;;;8.39;47.77;100776.03;2098138;28;20176;-66
2021/12/02 00:04:04;;;;;;;2.70;1.30;;;;;;;8.45;48.22;100793.72;2098266;28;20171;-66
2021/12/02 00:05:05;;;;;;;2.85;1.30;;;;;;;8.64;48.26;100820.69;2097744;28;20179;-66
2021/12/02 00:06:11;;;;;;;3.75;1.70;;;;;;;8.77;47.92;100833.53;2098411;28;20179;-66
2021/12/02 00:07:12;;;;;;;2.90;1.70;;;;;;;8.81;48.11;100828.75;2087910;28;20366;-66
2021/12/02 00:08:12;;;;;;;3.17;1.50;;;;;;;8.35;48.13;100750.47;2089507;28;20185;-66
2021/12/02 00:09:13;;;;;;;3.63;1.50;;;;;;;8.65;48.18;100798.19;2098317;28;20173;-66
2021/12/02 00:10:14;;;;;;;3.03;1.33;;;;;;;8.38;47.77;100738.56;2098078;28;20177;-66
2021/12/02 00:11:16;;;;;;;3.20;1.60;;;;;;;8.89;47.64;100816.41;2097461;28;20728;-66
2021/12/02 00:12:16;;;;;;;3.78;1.52;;;;;;;8.91;47.77;100816.78;2098204;28;20164;-66
2021/12/02 00:13:22;;;;;;;2.83;1.30;;;;;;;8.63;47.87;100774.94;2098353;28;20164;-66
2021/12/02 00:14:25;;;;;;;2.95;1.48;;;;;;;8.94;47.87;100810.41;2098367;28;20180;-66
2021/12/02 00:15:32;;;;;;;2.88;1.45;;;;;;;8.91;47.60;100808.47;2097110;28;20182;-66
2021/12/02 00:17:39;;;;;;;3.88;1.20;;;;;;;8.78;47.52;100818.53;2097365;28;20555;-66
2021/12/02 00:21:06;;;;;;;2.45;1.10;;;;;;;8.81;47.93;100808.66;2089815;28;20197;-66
2021/12/02 00:22:09;;;;;;;3.35;1.45;;;;;;;8.93;47.92;100813.59;2088796;28;20232;-66
2021/12/02 00:23:32;;;;;;;2.97;1.20;;;;;;;8.94;47.57;100813.19;2089406;28;20177;-66
2021/12/02 00:24:35;;;;;;;3.47;1.30;;;;;;;8.97;48.14;100815.09;2091529;28;20177;-66
2021/12/02 00:25:36;;;;;;;2.63;1.10;;;;;;;8.95;47.52;100808.41;2097753;28;20176;-66
2021/12/02 00:26:38;;;;;;;2.77;1.30;;;;;;;8.96;47.62;100799.72;2098194;28;20417;-67
2021/12/02 00:27:41;;;;;;;3.45;1.20;;;;;;;8.82;48.07;100779.81;2097227;28;20176;-67
2021/12/02 00:28:42;;;;;;;1.95;1.20;;;;;;;9.00;47.92;100810.72;2098196;28;20228;-67
2021/12/02 00:29:45;;;;;;;4.03;1.33;;;;;;;8.92;47.63;100790.69;2097652;28;20185;-66
2021/12/02 00:30:46;;;;;;;4.93;1.40;;;;;;;8.97;47.56;100800.50;2097818;28;20781;-66
2021/12/02 00:31:49;;;;;;;3.87;1.47;;;;;;;8.48;47.95;100727.41;2097993;28;20180;-66
2021/12/02 00:32:52;;;;;;;2.75;1.40;;;;;;;8.61;47.80;100747.72;2097939;28;20698;-66
2021/12/02 00:33:54;;;;;;;3.05;1.30;;;;;;;9.01;48.67;100832.44;2097419;28;20177;-67
2021/12/02 00:34:56;;;;;;;4.63;1.50;;;;;;;9.02;47.75;100806.34;2097667;28;20189;-67
2021/12/02 00:35:58;;;;;;;3.10;1.33;;;;;;;9.01;47.96;100812.28;2098113;28;20183;-67
2021/12/02 00:37:00;;;;;;;2.95;1.30;;;;;;;8.97;47.70;100812.34;2097274;28;20181;-67
2021/12/02 00:38:01;;;;;;;4.10;1.50;;;;;;;8.98;48.22;100816.66;2097453;28;20180;-67
2021/12/02 00:39:22;;;;;;;3.43;1.80;;;;;;;9.00;47.93;100796.91;2098010;28;20410;-67
2021/12/02 00:40:22;;;;;;;2.63;1.57;;;;;;;8.94;48.29;100793.84;2097389;28;20187;-67
2021/12/02 00:41:26;;;;;;;4.57;1.70;;;;;;;8.96;48.22;100785.91;2097874;28;20422;-67
2021/12/02 00:42:27;;;;;;;4.10;1.93;;;;;;;8.59;48.29;100732.75;2097072;28;20561;-67
2021/12/02 00:43:28;;;;;;;3.77;2.00;;;;;;;8.95;48.73;100789.06;2098094;28;20518;-67
2021/12/02 00:44:32;;;;;;;3.83;2.10;;;;;;;8.88;49.14;100787.22;2098074;28;20176;-67
2021/12/02 00:45:33;;;;;;;3.83;1.90;;;;;;;8.52;48.92;100739.19;2097483;28;20260;-66
2021/12/02 00:46:34;;;;;;;4.23;2.20;;;;;;;8.83;49.56;100786.91;2098130;28;20184;-66
2021/12/02 00:47:37;;;;;;;4.88;2.10;;;;;;;8.79;49.31;100791.69;2096628;28;20418;-67
2021/12/02 00:48:39;;;;;;;3.83;2.40;;;;;;;8.79;49.65;100799.97;2098023;28;20168;-67
2021/12/02 00:49:40;;;;;;;5.47;2.55;;;;;;;8.22;49.57;100722.63;2098069;28;20249;-66
2021/12/02 00:50:45;;;;;;;3.97;2.17;;;;;;;8.70;49.92;100800.47;2097821;28;20180;-67
2021/12/02 00:51:59;;;;;;;4.18;2.05;;;;;;;8.57;50.06;100796.69;2097415;28;20183;-67
2021/12/02 00:53:00;;;;;;;3.55;2.20;;;;;;;8.47;50.47;100794.09;2097858;28;20172;-66
2021/12/02 00:54:04;;;;;;;3.63;2.03;;;;;;;8.49;50.67;100811.81;2097905;28;20226;-66
2021/12/02 00:55:06;;;;;;;5.13;2.30;;;;;;;7.99;50.78;100735.50;2097375;28;20600;-66
2021/12/02 00:56:07;;;;;;;4.05;2.40;;;;;;;8.41;50.99;100792.97;2097361;28;20173;-66
2021/12/02 00:57:10;;;;;;;4.07;2.13;;;;;;;8.34;51.32;100799.38;2096927;28;20182;-66
2021/12/02 00:58:18;;;;;;;3.13;2.05;;;;;;;8.17;51.41;100775.50;2098153;28;20226;-66
2021/12/02 00:59:21;;;;;;;4.82;2.50;;;;;;;8.33;51.58;100797.81;2097919;28;20640;-66
2021/12/02 01:00:22;;;;;;;4.88;2.33;;;;;;;8.08;51.60;100764.16;2097858;28;20624;-66
2021/12/02 01:01:24;;;;;;;3.80;2.20;;;;;;;8.02;51.55;100756.72;2097041;28;20236;-66
2021/12/02 01:02:26;;;;;;;3.75;2.13;;;;;;;7.54;51.87;100681.63;2097484;28;20217;-66
2021/12/02 01:03:33;;;;;;;4.53;2.55;;;;;;;8.26;52.24;100805.41;2088849;28;20208;-66
2021/12/02 01:04:33;;;;;;;4.03;2.10;;;;;;;8.17;52.74;100789.28;2089802;28;20153;-66
2021/12/02 01:05:34;;;;;;;4.33;2.50;;;;;;;7.72;52.87;100716.09;2096757;28;20176;-66
2021/12/02 01:06:35;;;;;;;4.43;2.07;;;;;;;7.76;53.26;100732.59;2097121;28;20196;-66
2021/12/02 01:07:37;;;;;;;5.78;2.25;;;;;;;8.27;53.29;100796.72;2087999;28;20606;-66
2021/12/02 01:08:40;;;;;;;4.55;2.00;;;;;;;7.87;54.45;100738.78;2089053;28;20203;-66
2021/12/02 01:09:40;;;;;;;5.10;2.00;;;;;;;7.62;55.24;100708.69;2097299;28;20169;-66
2021/12/02 01:10:41;;;;;;;3.67;2.13;;;;;;;8.27;54.85;100798.66;2097788;28;20180;-66
2021/12/02 01:11:42;;;;;;;5.23;2.40;;;;;;;8.25;55.36;100803.84;2088628;28;20690;-65
2021/12/02 01:12:42;;;;;;;3.73;2.30;;;;;;;8.21;54.43;100801.09;2088600;28;20247;-66
2021/12/02 01:13:43;;;;;;;4.23;2.10;;;;;;;8.17;55.06;100805.88;2097840;28;20182;-66
2021/12/02 01:14:44;;;;;;;3.63;2.40;;;;;;;8.17;55.04;100802.31;2097181;28;20550;-66
2021/12/02 01:15:45;;;;;;;5.93;3.08;;;;;;;8.04;55.08;100777.22;2097335;28;20171;-66
2021/12/02 01:16:45;;;;;;;4.27;3.10;;;;;;;8.09;55.02;100798.84;2097236;28;20180;-66
2021/12/02 01:17:46;;;;;;;6.73;3.27;;;;;;;8.18;54.52;100803.88;2097339;28;20266;-66
2021/12/02 01:18:46;;;;;;;5.63;3.37;;;;;;;7.52;53.83;100712.34;2097205;28;20245;-66
2021/12/02 01:19:47;;;;;;;6.07;3.53;;;;;;;8.13;53.98;100805.09;2088940;28;20188;-66
2021/12/02 01:20:50;;;;;;;6.03;3.23;;;;;;;8.16;53.60;100800.75;2088721;28;20532;-66
2021/12/02 01:21:51;;;;;;;5.30;3.47;;;;;;;8.13;53.48;100802.34;2097426;28;20224;-66
2021/12/02 01:22:53;;;;;;;5.57;3.55;;;;;;;7.61;53.57;100726.44;2097312;28;20190;-66
2021/12/02 01:24:04;;;;;;;5.65;3.80;;;;;;;8.10;53.03;100807.91;2097117;28;20180;-66
2021/12/02 01:25:06;;;;;;;6.03;3.72;;;;;;;7.64;53.06;100739.41;2097116;28;20172;-66
2021/12/02 01:26:08;;;;;;;6.90;4.00;;;;;;;8.06;53.36;100809.91;2088712;28;20177;-66
2021/12/02 01:27:11;;;;;;;5.95;4.30;;;;;;;8.04;53.31;100802.03;2087952;28;20176;-66
2021/12/02 01:28:12;;;;;;;6.30;4.13;;;;;;;8.00;53.03;100795.78;2097171;28;20171;-66
2021/12/02 01:29:13;;;;;;;7.13;3.85;;;;;;;8.03;52.96;100806.00;2097643;28;20717;-66
2021/12/02 01:30:14;;;;;;;7.70;4.23;;;;;;;8.00;53.33;100814.31;2097692;28;20554;-66
2021/12/02 01:31:16;;;;;;;8.47;4.23;;;;;;;8.01;53.56;100813.13;2097613;28;20164;-66
2021/12/02 01:32:17;;;;;;;6.35;4.53;;;;;;;7.99;53.46;100824.56;2097187;28;20163;-66
2021/12/02 01:33:20;;;;;;;6.63;4.00;;;;;;;8.00;54.02;100817.84;2097172;28;20208;-66
2021/12/02 01:34:23;;;;;;;7.05;3.90;;;;;;;7.86;54.04;100803.44;2097691;28;20172;-66
2021/12/02 01:35:26;;;;;;;8.20;4.55;;;;;;;7.97;53.74;100813.16;2096960;28;20200;-66
2021/12/02 01:36:33;;;;;;;7.05;4.50;;;;;;;7.55;54.23;100757.63;2097750;28;20480;-66
2021/12/02 01:37:34;;;;;;;6.75;4.75;;;;;;;7.03;54.26;100676.97;2096285;28;20164;-66
2021/12/02 01:38:34;;;;;;;6.57;4.90;;;;;;;7.87;54.86;100814.06;2097647;28;20175;-66
2021/12/02 01:39:36;;;;;;;10.43;4.93;;;;;;;7.84;55.78;100816.84;2097701;28;20211;-66
2021/12/02 01:40:37;;;;;;;8.07;5.38;;;;;;;7.79;56.11;100820.81;2097667;28;20221;-66
2021/12/02 01:41:58;;;;;;;8.80;5.20;;;;;;;7.81;56.81;100815.69;2096899;28;20305;-66
2021/12/02 01:42:59;;;;;;;7.25;5.32;;;;;;;7.35;57.25;100749.16;2097283;28;20177;-66
2021/12/02 01:44:00;;;;;;;9.00;5.50;;;;;;;7.74;57.41;100809.47;2097285;28;20176;-66
2021/12/02 01:45:02;;;;;;;9.63;5.70;;;;;;;7.74;58.16;100818.50;2097008;28;20691;-66
2021/12/02 01:46:03;;;;;;;10.43;6.15;;;;;;;7.78;58.20;100821.22;2097045;28;20660;-66
2021/12/02 01:47:12;;;;;;;10.45;6.88;;;;;;;7.77;57.96;100817.72;2096530;28;20663;-66
2021/12/02 01:48:23;;;;;;;9.13;5.78;;;;;;;7.18;58.96;100721.75;2097645;28;20243;-66
2021/12/02 01:49:32;;;;;;;8.82;6.00;;;;;;;7.77;58.80;100814.94;2097584;28;20546;-66
2021/12/02 01:50:35;;;;;;;8.95;5.72;;;;;;;7.73;59.03;100818.91;2097029;28;20255;-66
2021/12/02 01:51:45;;;;;;;7.90;5.82;;;;;;;7.72;59.41;100822.88;2097451;28;20173;-66
2021/12/02 01:52:47;;;;;;;9.15;5.47;;;;;;;7.62;58.79;100809.94;2097511;28;20620;-66
2021/12/02 01:53:51;;;;;;;8.70;5.78;;;;;;;7.57;58.68;100810.38;2097325;28;20615;-66
2021/12/02 01:55:07;;;;;;;9.07;5.85;;;;;;;7.46;58.70;100804.97;2096579;28;20168;-66
2021/12/02 01:56:16;;;;;;;9.82;6.00;;;;;;;7.48;58.76;100815.63;2097666;28;20159;-66
2021/12/02 01:57:40;;;;;;;10.52;5.85;;;;;;;7.47;58.97;100814.81;2096280;28;20205;-66
2021/12/02 01:58:47;;;;;;;9.82;5.85;;;;;;;7.43;58.90;100816.03;2097562;28;20156;-66
2021/12/02 01:59:52;;;;;;;9.20;5.63;;;;;;;7.35;58.87;100800.75;2097029;28;20172;-66
2021/12/02 02:00:55;;;;;;;8.00;5.72;;;;;;;7.42;58.95;100808.94;2097409;28;20679;-66
2021/12/02 02:01:57;;;;;;;8.05;5.78;;;;;;;7.41;59.03;100801.88;2097269;28;20177;-66
2021/12/02 02:03:00;;;;;;;8.40;5.60;;;;;;;7.38;58.76;100808.22;2097336;28;20264;-66
2021/12/02 02:04:01;;;;;;;8.05;5.50;;;;;;;6.91;58.31;100726.25;2087563;28;20189;-66
2021/12/02 02:05:06;;;;;;;7.55;5.20;;;;;;;7.35;58.06;100795.22;2087875;28;20176;-66
2021/12/02 02:06:08;;;;;;;9.05;5.65;;;;;;;7.34;57.50;100791.66;2097564;28;20695;-66
2021/12/02 02:07:17;;;;;;;7.47;5.10;;;;;;;7.28;57.66;100787.03;2096437;28;20661;-66
2021/12/02 02:08:21;;;;;;;7.55;5.18;;;;;;;7.24;58.02;100787.06;2087899;28;20264;-66
2021/12/02 02:09:28;;;;;;;7.63;4.95;;;;;;;7.20;57.79;100793.75;2089071;28;20197;-66
2021/12/02 02:10:34;;;;;;;9.05;5.50;;;;;;;6.86;57.94;100757.78;2097580;28;20231;-66
2021/12/02 02:11:35;;;;;;;7.43;4.85;;;;;;;7.12;58.57;100786.75;2097388;28;20262;-66
2021/12/02 02:12:36;;;;;;;7.30;5.43;;;;;;;7.10;58.48;100787.16;2097214;28;20172;-66
2021/12/02 02:13:37;;;;;;;7.73;5.37;;;;;;;7.09;58.25;100795.81;2096564;28;20182;-66
2021/12/02 02:14:40;;;;;;;7.72;5.13;;;;;;;6.65;58.08;100732.34;2097437;28;20168;-66
2021/12/02 02:15:46;;;;;;;8.45;5.90;;;;;;;6.58;58.13;100737.91;2087887;28;20186;-66
2021/12/02 02:16:47;;;;;;;7.30;5.63;;;;;;;6.97;58.07;100783.28;2088704;28;20167;-66
2021/12/02 02:17:55;;;;;;;6.85;5.03;;;;;;;6.95;58.00;100782.13;2096464;28;20233;-66
2021/12/02 02:18:56;;;;;;;7.72;5.70;;;;;;;6.92;58.30;100782.97;2097414;28;20648;-66
2021/12/02 02:19:58;;;;;;;8.47;6.13;;;;;;;6.92;58.40;100782.97;2097504;28;20543;-66
2021/12/02 02:21:02;;;;;;;9.25;5.90;;;;;;;6.90;57.92;100794.38;2096666;28;20179;-66
2021/12/02 02:22:04;;;;;;;9.82;6.38;;;;;;;6.88;57.66;100774.69;2093319;28;20877;-66
2021/12/02 02:23:08;;;;;;;8.95;6.20;;;;;;;6.75;57.98;100765.34;2097206;28;20172;-66
2021/12/02 02:24:13;;;;;;;10.90;6.10;;;;;;;6.81;58.19;100774.75;2096832;28;20172;-66
2021/12/02 02:25:15;;;;;;;10.80;6.50;;;;;;;6.76;58.69;100777.94;2096732;28;20259;-66
2021/12/02 02:26:22;;;;;;;9.82;6.78;;;;;;;6.68;58.53;100775.63;2097102;28;20648;-66
2021/12/02 02:27:22;;;;;;;8.52;6.65;;;;;;;6.72;58.79;100768.13;2091135;28;20485;-66
2021/12/02 02:28:24;;;;;;;10.07;7.13;;;;;;;6.66;58.90;100759.50;2097487;28;20175;-66
2021/12/02 02:29:24;;;;;;;10.20;6.38;;;;;;;6.08;58.97;100679.59;2097342;28;20233;-66
2021/12/02 02:30:25;;;;;;;9.43;6.47;;;;;;;6.04;58.99;100678.81;2097419;28;20184;-66
2021/12/02 02:31:28;;;;;;;12.20;6.63;;;;;;;6.60;59.04;100766.63;2096861;28;20676;-66
2021/12/02 02:32:29;;;;;;;10.80;7.30;;;;;;;6.21;59.40;100708.22;2097072;28;20168;-66
2021/12/02 02:33:37;;;;;;;10.73;6.77;;;;;;;6.04;59.03;100681.56;2097082;28;20171;-66
2021/12/02 02:34:38;;;;;;;10.05;6.20;;;;;;;6.51;59.39;100779.25;2097274;28;20159;-66
2021/12/02 02:35:40;;;;;;;9.07;6.37;;;;;;;5.99;59.11;100711.44;2096391;28;20183;-66
2021/12/02 02:36:55;;;;;;;9.30;6.28;;;;;;;6.43;59.60;100770.25;2097262;28;20175;-66
2021/12/02 02:37:56;;;;;;;9.38;6.82;;;;;;;6.29;59.39;100775.81;2097335;28;20189;-66
2021/12/02 02:38:58;;;;;;;9.07;6.28;;;;;;;6.38;59.41;100773.41;2097243;28;20178;-67
2021/12/02 02:40:05;;;;;;;8.80;6.35;;;;;;;6.35;59.74;100776.97;2096700;28;20464;-66
2021/12/02 02:41:08;;;;;;;9.80;6.47;;;;;;;6.16;59.87;100758.16;2097373;28;20241;-66
2021/12/02 02:42:09;;;;;;;11.27;6.80;;;;;;;6.33;59.66;100781.28;2097255;28;20210;-66
2021/12/02 02:43:12;;;;;;;12.67;7.03;;;;;;;6.25;59.83;100777.00;2097117;28;20203;-66
2021/12/02 02:44:13;;;;;;;10.07;7.10;;;;;;;6.29;59.93;100786.81;2096816;28;20202;-66
2021/12/02 02:45:13;;;;;;;11.10;7.00;;;;;;;5.73;59.73;100684.41;2096147;28;20684;-66
2021/12/02 02:46:25;;;;;;;9.37;6.70;;;;;;;6.06;59.94;100750.72;2097368;28;20656;-66
2021/12/02 02:47:27;;;;;;;11.60;7.32;;;;;;;6.20;60.43;100786.44;2096273;28;20156;-66
2021/12/02 02:48:29;;;;;;;10.15;6.97;;;;;;;6.14;59.73;100782.53;2097382;28;20554;-66
2021/12/02 02:49:30;;;;;;;10.85;7.10;;;;;;;6.12;59.88;100782.16;2096738;28;20241;-66
2021/12/02 02:50:32;;;;;;;13.37;7.57;;;;;;;6.20;60.20;100783.69;2097326;28;20225;-66
2021/12/02 02:51:34;;;;;;;11.05;7.50;;;;;;;6.14;59.84;100776.25;2097254;28;20675;-66
2021/12/02 02:52:34;;;;;;;11.40;7.38;;;;;;;6.07;60.25;100779.84;2097204;28;20171;-66
2021/12/02 02:53:35;;;;;;;10.43;7.67;;;;;;;5.56;60.59;100699.81;2096484;28;20207;-66
2021/12/02 02:54:35;;;;;;;11.20;7.07;;;;;;;6.03;60.77;100787.31;2096812;28;20194;-66
2021/12/02 02:55:37;;;;;;;12.87;7.97;;;;;;;6.04;60.50;100782.56;2096838;28;20206;-66
2021/12/02 02:56:49;;;;;;;11.95;7.47;;;;;;;6.02;60.34;100794.00;2097204;28;20615;-66
2021/12/02 02:58:03;;;;;;;14.35;8.27;;;;;;;5.95;60.97;100771.22;2096898;28;20168;-66
2021/12/02 03:00:17;;;;;;;10.97;7.80;;;;;;;5.03;61.43;100660.63;2089122;28;20590;-66
2021/12/02 03:07:45;;;;;;;10.60;7.38;;;;;;;5.44;61.86;100751.66;2095660;28;20167;-67
2021/12/02 03:08:32;;;;;;;12.55;8.10;;;;;;;5.47;61.22;100762.63;2083171;28;20191;-66
2021/12/02 03:10:44;;;;;;;13.18;8.13;;;;;;;4.87;61.79;100671.22;2088458;28;20676;-66
2021/12/02 03:11:51;;;;;;;11.57;7.78;;;;;;;5.43;61.78;100756.34;2094547;28;20179;-66
2021/12/02 03:12:59;;;;;;;11.35;7.93;;;;;;;5.36;61.81;100748.13;2088094;28;20195;-66
2021/12/02 03:14:08;;;;;;;11.95;7.85;;;;;;;5.39;61.59;100761.06;2089319;28;20175;-67
2021/12/02 03:17:29;;;;;;;13.50;8.55;;;;;;;4.74;62.28;100704.94;2096186;28;20163;-66
2021/12/02 03:18:30;;;;;;;16.67;8.45;;;;;;;5.16;62.70;100760.69;2097175;28;20213;-66
2021/12/02 03:19:30;;;;;;;12.73;7.50;;;;;;;5.05;63.13;100764.59;2097177;28;20178;-66
2021/12/02 03:20:31;;;;;;;20.23;8.53;;;;;;;5.02;63.01;100768.91;2096677;28;20178;-67
2021/12/02 03:21:31;;;;;;;13.17;8.27;;;;;;;4.84;63.09;100759.09;2096936;28;20161;-66
2021/12/02 03:22:33;;;;;;;15.77;8.30;;;;;;;4.91;63.02;100759.09;2097065;28;20668;-66
2021/12/02 03:23:54;;;;;;;15.52;8.20;;;;;;;5.03;62.85;100773.22;2097153;28;20227;-66
2021/12/02 03:24:54;;;;;;;19.63;8.50;;;;;;;5.00;62.55;100775.97;2096214;28;20191;-66
2021/12/02 03:25:55;;;;;;;23.73;9.10;;;;;;;4.03;63.28;100629.97;2096837;28;20265;-66
2021/12/02 03:26:55;;;;;;;21.30;8.73;;;;;;;4.75;63.45;100766.91;2096081;28;20243;-66
2021/12/02 03:27:56;;;;;;;21.37;9.53;;;;;;;4.71;64.07;100775.16;2097034;28;20582;-66
2021/12/02 03:28:57;;;;;;;16.87;8.60;;;;;;;4.73;64.14;100775.53;2097063;28;20181;-66
2021/12/02 03:29:57;;;;;;;15.03;8.57;;;;;;;4.77;63.98;100778.31;2097575;28;20240;-66
2021/12/02 03:31:02;;;;;;;21.83;8.70;;;;;;;4.63;64.03;100745.34;2089718;28;20175;-66
2021/12/02 03:32:03;;;;;;;26.33;9.32;;;;;;;4.85;63.52;100760.66;2090365;28;20171;-65
2021/12/02 03:33:04;;;;;;;24.58;10.07;;;;;;;4.86;63.62;100754.78;2098487;28;20186;-66
2021/12/02 03:34:07;;;;;;;25.03;10.23;;;;;;;4.37;63.69;100686.06;2097841;28;20656;-65
2021/12/02 03:35:07;;;;;;;22.73;9.25;;;;;;;4.85;63.65;100757.91;2097663;28;20174;-66
2021/12/02 03:36:09;;;;;;;23.80;9.27;;;;;;;4.87;63.42;100750.09;2098522;28;20232;-66
2021/12/02 03:37:10;;;;;;;18.50;8.60;;;;;;;4.88;63.01;100751.66;2097444;28;20222;-66
2021/12/02 03:38:11;;;;;;;23.25;9.00;;;;;;;4.10;63.44;100627.25;2098610;28;20178;-66
2021/12/02 03:39:12;;;;;;;23.03;8.63;;;;;;;4.87;62.85;100747.34;2097827;28;20179;-65
2021/12/02 03:40:13;;;;;;;25.20;8.67;;;;;;;4.16;63.35;100646.84;2098344;28;20177;-65
2021/12/02 03:41:14;;;;;;;20.50;8.77;;;;;;;4.79;62.97;100738.31;2098418;28;20170;-66
2021/12/02 03:42:15;;;;;;;21.75;8.55;;;;;;;4.82;63.22;100736.75;2098465;28;20464;-65
2021/12/02 03:43:15;;;;;;;19.10;8.83;;;;;;;4.77;63.60;100745.38;2097911;28;20173;-65
2021/12/02 03:44:16;;;;;;;19.50;8.37;;;;;;;4.75;63.88;100748.50;2098399;28;20644;-66
2021/12/02 03:45:17;;;;;;;18.53;9.33;;;;;;;4.59;64.54;100750.03;2097701;28;20175;-65
2021/12/02 03:46:21;;;;;;;18.00;8.50;;;;;;;4.60;64.39;100757.06;2098592;28;20169;-65
2021/12/02 03:47:21;;;;;;;18.48;9.07;;;;;;;4.08;64.79;100675.41;2097581;28;20305;-65
2021/12/02 03:48:22;;;;;;;18.10;8.33;;;;;;;4.52;64.96;100752.75;2097940;28;20335;-65
2021/12/02 03:49:22;;;;;;;21.37;8.77;;;;;;;4.52;64.74;100772.72;2098610;28;20174;-65
2021/12/02 03:50:23;;;;;;;16.50;9.27;;;;;;;4.47;64.36;100756.66;2089561;28;20174;-65
2021/12/02 03:51:24;;;;;;;17.13;9.17;;;;;;;4.50;64.85;100755.88;2089569;28;20178;-66
2021/12/02 03:52:24;;;;;;;22.67;9.00;;;;;;;4.55;65.13;100757.44;2098147;28;20185;-66
2021/12/02 03:53:25;;;;;;;19.47;8.90;;;;;;;4.43;65.02;100733.13;2098446;28;20171;-66
2021/12/02 03:54:25;;;;;;;17.67;9.37;;;;;;;3.74;64.54;100622.06;2098315;28;20182;-65
2021/12/02 03:55:26;;;;;;;16.77;8.97;;;;;;;4.64;65.14;100752.38;2097516;28;20230;-65
2021/12/02 03:56:27;;;;;;;16.23;8.93;;;;;;;4.65;64.64;100754.75;2098472;28;20179;-65
2021/12/02 03:57:32;;;;;;;16.07;8.97;;;;;;;4.70;64.60;100742.59;2096735;28;20232;-65
2021/12/02 03:58:34;;;;;;;14.38;8.65;;;;;;;4.71;64.62;100735.91;2098480;28;20204;-65
2021/12/02 03:59:34;;;;;;;12.95;8.15;;;;;;;4.52;64.04;100712.38;2098548;28;20174;-66
2021/12/02 04:00:35;;;;;;;12.93;8.90;;;;;;;4.24;64.52;100651.97;2098438;28;20179;-66
2021/12/02 04:01:35;;;;;;;13.97;8.20;;;;;;;4.08;64.35;100623.31;2097946;28;20575;-65
2021/12/02 04:02:36;;;;;;;19.77;8.67;;;;;;;4.79;64.52;100726.53;2098378;28;20464;-65
2021/12/02 04:03:37;;;;;;;13.93;8.25;;;;;;;4.78;64.44;100724.97;2098391;28;20281;-66
2021/12/02 04:04:38;;;;;;;15.50;8.20;;;;;;;4.62;64.74;100699.84;2097967;28;20247;-65
2021/12/02 04:05:38;;;;;;;14.23;8.70;;;;;;;4.85;64.56;100725.75;2096858;28;20179;-65
2021/12/02 04:06:40;;;;;;;14.53;8.87;;;;;;;4.89;64.65;100720.25;2098356;28;20593;-66
2021/12/02 04:07:40;;;;;;;17.90;9.55;;;;;;;4.38;65.10;100634.72;2097440;28;20174;-66
2021/12/02 04:08:45;;;;;;;15.00;9.30;;;;;;;4.65;64.77;100677.88;2098275;28;20257;-66
2021/12/02 04:09:47;;;;;;;14.85;9.20;;;;;;;4.88;65.09;100705.75;2098253;28;20205;-65
2021/12/02 04:10:47;;;;;;;15.40;9.57;;;;;;;5.02;64.78;100719.47;2097774;28;20179;-65
2021/12/02 04:11:56;;;;;;;16.80;9.53;;;;;;;5.01;64.15;100717.13;2098287;28;20173;-66
2021/12/02 04:15:13;;;;;;;15.45;10.73;;;;;;;4.35;64.88;100619.84;2097096;28;20247;-65
2021/12/02 04:16:17;;;;;;;14.30;9.52;;;;;;;4.80;64.81;100706.13;2098144;28;20183;-66
2021/12/02 04:17:19;;;;;;;16.85;9.02;;;;;;;4.80;65.36;100706.13;2097136;28;20265;-66
2021/12/02 04:18:20;;;;;;;16.08;9.30;;;;;;;4.88;65.41;100707.72;2098214;28;20186;-66
2021/12/02 04:19:22;;;;;;;16.63;10.10;;;;;;;4.94;64.97;100704.19;2097586;28;20213;-66
2021/12/02 04:20:25;;;;;;;17.48;10.32;;;;;;;4.95;65.72;100704.97;2098340;28;20659;-66
2021/12/02 04:21:25;;;;;;;16.15;10.80;;;;;;;4.55;65.89;100648.47;2098013;28;20649;-66
2021/12/02 04:22:26;;;;;;;19.43;11.47;;;;;;;4.88;65.71;100716.72;2098287;28;20576;-65
2021/12/02 04:23:26;;;;;;;22.00;12.80;;;;;;;4.96;66.21;100720.25;2098238;28;20619;-65
2021/12/02 04:24:27;;;;;;;22.27;12.57;;;;;;;4.49;65.50;100639.06;2097521;28;20265;-65
2021/12/02 04:25:27;;;;;;;19.50;12.23;;;;;;;4.89;65.73;100709.28;2097341;28;20171;-66
2021/12/02 04:26:28;;;;;;;18.93;11.97;;;;;;;4.87;66.37;100703.41;2098024;28;20181;-66
2021/12/02 04:27:29;;;;;;;16.10;12.07;;;;;;;4.98;65.72;100706.94;2097043;28;20175;-65
2021/12/02 04:28:30;;;;;;;21.33;12.30;;;;;;;4.98;65.86;100710.44;2097629;28;21097;-65
2021/12/02 04:29:30;;;;;;;21.17;12.10;;;;;;;4.99;65.21;100701.06;2098469;28;20590;-66
2021/12/02 04:30:31;;;;;;;20.47;12.37;;;;;;;4.93;65.48;100705.34;2098248;28;20234;-66
2021/12/02 04:31:31;;;;;;;17.87;11.57;;;;;;;4.92;65.60;100708.50;2098181;28;20255;-66
2021/12/02 04:32:32;;;;;;;16.70;11.30;;;;;;;4.94;65.28;100709.69;2098264;28;20197;-65
2021/12/02 04:33:33;;;;;;;19.60;12.43;;;;;;;4.40;65.49;100607.69;2097359;28;20178;-65
2021/12/02 04:34:33;;;;;;;19.40;13.30;;;;;;;4.58;65.54;100652.41;2089028;28;20179;-65
2021/12/02 04:35:33;;;;;;;18.67;12.57;;;;;;;4.98;65.69;100704.19;2088574;28;20249;-65
2021/12/02 04:36:34;;;;;;;20.07;12.97;;;;;;;5.02;66.10;100694.75;2097944;28;20625;-65
2021/12/02 04:37:35;;;;;;;17.83;12.50;;;;;;;5.03;65.59;100693.56;2096497;28;20188;-65
2021/12/02 04:38:35;;;;;;;16.97;11.90;;;;;;;4.20;65.59;100570.84;2098072;28;20186;-66
2021/12/02 04:39:36;;;;;;;21.97;13.07;;;;;;;5.06;65.53;100692.00;2098018;28;20240;-66
2021/12/02 04:40:40;;;;;;;17.77;12.13;;;;;;;4.29;65.04;100569.28;2089104;28;20171;-65
2021/12/02 04:41:41;;;;;;;18.17;12.52;;;;;;;5.25;65.18;100699.84;2089653;28;20180;-66
2021/12/02 04:42:43;;;;;;;17.40;11.93;;;;;;;4.92;65.44;100648.88;2097730;28;20202;-65
2021/12/02 04:43:44;;;;;;;19.27;12.70;;;;;;;4.25;65.33;100543.03;2098052;28;20540;-65
2021/12/02 04:44:44;;;;;;;20.70;13.17;;;;;;;5.21;65.12;100699.06;2097833;28;20227;-66
2021/12/02 04:45:45;;;;;;;18.57;13.03;;;;;;;4.69;65.75;100612.00;2097283;28;20186;-66
2021/12/02 04:46:46;;;;;;;19.90;13.27;;;;;;;4.47;65.38;100604.97;2096703;28;20615;-66
2021/12/02 04:47:46;;;;;;;21.00;13.35;;;;;;;5.20;65.99;100695.53;2097755;28;20171;-66
2021/12/02 04:48:47;;;;;;;19.17;13.43;;;;;;;5.26;65.38;100695.91;2097918;28;20205;-65
2021/12/02 04:49:47;;;;;;;19.27;13.10;;;;;;;5.30;65.63;100689.25;2098153;28;20279;-66
2021/12/02 04:50:49;;;;;;;18.73;13.87;;;;;;;5.28;65.53;100688.84;2088472;28;20629;-66
2021/12/02 04:51:49;;;;;;;20.52;13.80;;;;;;;5.29;66.08;100693.16;2089306;28;20657;-66
2021/12/02 04:52:50;;;;;;;18.60;13.77;;;;;;;5.30;65.72;100697.50;2089056;28;20879;-65
2021/12/02 04:53:50;;;;;;;22.37;14.17;;;;;;;5.29;65.98;100715.13;2089151;28;20182;-66
2021/12/02 04:54:51;;;;;;;18.97;13.60;;;;;;;5.35;66.14;100693.56;2088442;28;20175;-66
2021/12/02 04:55:52;;;;;;;20.53;13.67;;;;;;;5.31;65.70;100674.34;2088143;28;20257;-66
2021/12/02 04:56:52;;;;;;;19.93;13.77;;;;;;;5.30;66.01;100667.28;2096783;28;20668;-65
2021/12/02 04:57:54;;;;;;;21.17;14.10;;;;;;;5.48;65.49;100691.97;2097904;28;20174;-66
2021/12/02 04:58:54;;;;;;;18.67;13.48;;;;;;;5.50;65.12;100692.34;2097781;28;20178;-66
2021/12/02 04:59:55;;;;;;;20.70;14.23;;;;;;;5.55;65.20;100691.94;2097463;28;20182;-66
2021/12/02 05:00:55;;;;;;;22.90;13.87;;;;;;;5.58;64.59;100683.69;2097872;28;20680;-65
2021/12/02 05:01:56;;;;;;;19.73;14.30;;;;;;;5.48;64.31;100681.75;2097869;28;20233;-65
2021/12/02 05:02:57;;;;;;;20.27;13.77;;;;;;;5.55;64.35;100691.94;2097874;28;20657;-65
2021/12/02 05:03:57;;;;;;;19.23;13.57;;;;;;;5.52;63.82;100690.78;2088898;28;20187;-65
2021/12/02 05:04:58;;;;;;;22.40;13.13;;;;;;;5.60;63.81;100702.53;2087646;28;20235;-65
2021/12/02 05:05:58;;;;;;;18.23;13.47;;;;;;;5.53;63.82;100719.06;2097751;28;20167;-65
2021/12/02 05:07:00;;;;;;;19.57;13.73;;;;;;;5.49;64.19;100690.78;2096624;28;20538;-66
2021/12/02 05:08:03;;;;;;;19.38;14.07;;;;;;;4.75;64.01;100578.28;2088886;28;20221;-66
2021/12/02 05:09:03;;;;;;;20.65;13.93;;;;;;;5.44;64.16;100671.94;2081983;28;20752;-65